»·PEaware :: N763BR RKSI-KLAX

N763BR :: RKSI-KLAX

FLIGHT INFORMATION

Flight Status: Arrived
Operator: Privately registered:
United States
More flights under this callsign
Pilot: John H. (610)
Aircraft: GULFSTREAM G-1159D GULFSTREAM 5
(GLF5)
More flights by this aircraft type
Origin: RKSI Incheon Intl
Republic of Korea
Destination: KLAX Los Angeles Intl
United States
More flights between these airports :: More routes between these airports
Route: +EGOBA G597 LANAT Y51 SAMON Y51 CVC SMOLT OTR15 MORAY 3400N 15000E 3500N 16000E 3600N 17000E 3700N 18000E 3700N 17000W 3800N 16000W 3900N 15000W 3800N 14000W 3800N 13000W DACEM PAINT PIRAT AVE J1 FIM SADDE6
File this flight plan on PilotEdge
Remarks:
Altitude:
(Current/Filed)
33,000ft
Speed:
(Current/Filed)
475kts
Departed: 08-Jan-15 11:11 PM
Arrived: 09-Jan-15 11:25 AM
Distance/Time
Traveled:
5195nm/12:13
Distance/Time
To Go:
Arrived

Flight Plot

Page will automatically refresh every two minutes.


Map Options




Map Legend


Flown Route
Filed Route
Departure Airport
Arrival Airport
Navaid (VOR, NDB)
Fix

Horizontal Profiles

Position Reports

Time Latitude Longitude Heading Altitude Ground
Speed
08-Jan-15 22:59 37.454322 126.460766 324 32ft 0kts
08-Jan-15 23:00 37.454322 126.460766 324 32ft 0kts
08-Jan-15 23:01 37.454322 126.460766 324 32ft 0kts
08-Jan-15 23:02 37.454322 126.460766 324 32ft 0kts
08-Jan-15 23:03 37.454322 126.460766 324 32ft 0kts
08-Jan-15 23:04 37.454322 126.460766 324 32ft 0kts
08-Jan-15 23:05 37.454322 126.460766 324 32ft 0kts
08-Jan-15 23:06 37.454322 126.460766 324 32ft 0kts
08-Jan-15 23:07 37.504406 126.439675 30 2466ft 258kts
08-Jan-15 23:08 37.517213 126.524239 100 6597ft 274kts
08-Jan-15 23:09 37.499487 126.613297 105 10438ft 291kts
08-Jan-15 23:10 37.470624 126.750084 105 14771ft 500kts
08-Jan-15 23:11 37.440902 126.890181 105 18172ft 497kts
08-Jan-15 23:12 37.400457 127.079351 105 22828ft 488kts
08-Jan-15 23:13 37.371593 127.213369 105 26184ft 482kts
08-Jan-15 23:14 37.337536 127.370478 105 30177ft 474kts
08-Jan-15 23:15 37.303122 127.528095 105 33052ft 482kts
08-Jan-15 23:16 37.268145 127.686406 106 33065ft 485kts
08-Jan-15 23:17 37.232378 127.847962 106 33065ft 485kts
08-Jan-15 23:18 37.196526 128.008760 106 33066ft 485kts
08-Jan-15 23:19 37.160355 128.169927 106 33096ft 487kts
08-Jan-15 23:20 37.123736 128.331862 107 33097ft 488kts
08-Jan-15 23:21 37.086640 128.494771 107 33097ft 488kts
08-Jan-15 23:22 37.049449 128.656197 108 33095ft 488kts
08-Jan-15 23:23 37.012424 128.816575 108 33095ft 488kts
08-Jan-15 23:24 36.974964 128.977742 108 33095ft 488kts
08-Jan-15 23:25 36.937599 129.137424 108 33096ft 488kts
08-Jan-15 23:26 36.899318 129.299921 108 33096ft 488kts
08-Jan-15 23:27 36.860873 129.462015 108 33097ft 488kts
08-Jan-15 23:28 36.823212 129.618927 109 33094ft 488kts
08-Jan-15 23:29 36.784270 129.781034 109 33094ft 487kts
08-Jan-15 23:30 36.745114 129.942882 109 33094ft 487kts
08-Jan-15 23:31 36.705783 130.104384 109 33095ft 487kts
08-Jan-15 23:32 36.666270 130.265575 109 33095ft 487kts
08-Jan-15 23:33 36.626495 130.426782 109 33095ft 487kts
08-Jan-15 23:34 36.586520 130.587086 110 33093ft 487kts
08-Jan-15 23:35 36.546403 130.747533 109 33093ft 487kts
08-Jan-15 23:36 36.505914 130.908505 109 33093ft 487kts
08-Jan-15 23:37 36.465443 131.068381 109 33093ft 487kts
08-Jan-15 23:38 36.424696 131.228338 109 33094ft 487kts
08-Jan-15 23:39 36.383652 131.388455 109 33094ft 487kts
08-Jan-15 23:40 36.369642 131.552910 94 33097ft 493kts
08-Jan-15 23:41 36.364231 131.722285 94 33092ft 493kts
08-Jan-15 23:42 36.358722 131.891630 94 33097ft 493kts
08-Jan-15 23:43 36.352985 132.060700 94 33098ft 493kts
08-Jan-15 23:44 36.347285 132.222115 94 33098ft 493kts
08-Jan-15 23:45 36.342299 132.358501 94 33098ft 493kts
08-Jan-15 23:46 36.336394 132.514798 94 33099ft 493kts
08-Jan-15 23:47 36.329892 132.676688 94 33096ft 492kts
08-Jan-15 23:48 36.323315 132.839337 95 33093ft 482kts
08-Jan-15 23:49 36.321454 132.884257 95 33096ft 481kts
08-Jan-15 23:50 36.315140 133.033726 94 32944ft 487kts
08-Jan-15 23:51 36.307818 133.202076 93 32891ft 489kts
08-Jan-15 23:52 36.301224 133.349378 93 32890ft 488kts
08-Jan-15 23:53 36.293505 133.516808 93 32891ft 487kts
08-Jan-15 23:54 36.285375 133.684305 93 32888ft 486kts
08-Jan-15 23:55 36.277177 133.851855 93 32888ft 486kts
08-Jan-15 23:56 36.268796 134.018353 93 32889ft 486kts
08-Jan-15 23:57 36.260127 134.185926 93 32889ft 486kts
08-Jan-15 23:58 36.251245 134.353065 93 32890ft 486kts
08-Jan-15 23:59 36.242150 134.519776 93 32890ft 486kts
09-Jan-15 00:00 36.232634 134.686278 94 32888ft 486kts
09-Jan-15 00:01 36.223020 134.853491 94 32888ft 486kts
09-Jan-15 00:02 36.213221 135.019866 94 32889ft 486kts
09-Jan-15 00:03 36.203146 135.186942 94 32889ft 486kts
09-Jan-15 00:04 36.192894 135.353092 94 32890ft 486kts
09-Jan-15 00:05 36.182356 135.520081 94 32890ft 486kts
09-Jan-15 00:06 36.171462 135.686331 94 32888ft 486kts
09-Jan-15 00:07 36.160490 135.852801 94 32888ft 486kts
09-Jan-15 00:08 36.149275 136.019411 94 32889ft 486kts
09-Jan-15 00:09 36.137833 136.185920 94 32889ft 486kts
09-Jan-15 00:10 36.126174 136.352202 94 33002ft 486kts
09-Jan-15 00:11 36.114367 136.517289 94 33015ft 485kts
09-Jan-15 00:12 36.102084 136.683401 95 33013ft 485kts
09-Jan-15 00:13 36.089738 136.849512 95 33014ft 485kts
09-Jan-15 00:14 36.077169 137.015507 95 33014ft 485kts
09-Jan-15 00:15 36.064374 137.181394 95 33015ft 485kts
09-Jan-15 00:16 36.053529 137.319701 95 33015ft 485kts
09-Jan-15 00:17 36.038080 137.513246 95 33015ft 485kts
09-Jan-15 00:18 36.024419 137.679100 96 33013ft 485kts
09-Jan-15 00:19 36.013042 137.816795 96 33014ft 485kts
09-Jan-15 00:20 35.999141 137.982452 96 32998ft 487kts
09-Jan-15 00:21 35.985216 138.145533 97 32746ft 465kts
09-Jan-15 00:22 35.971599 138.302391 95 32744ft 458kts
09-Jan-15 00:23 35.957834 138.459034 94 32744ft 462kts
09-Jan-15 00:24 35.943480 138.617719 94 32747ft 467kts
09-Jan-15 00:25 35.929035 138.777242 94 32747ft 470kts
09-Jan-15 00:26 35.914236 138.938025 93 32747ft 472kts
09-Jan-15 00:27 35.899235 139.098620 93 32747ft 473kts
09-Jan-15 00:28 35.883935 139.260028 93 32747ft 473kts
09-Jan-15 00:29 35.868459 139.420974 93 32747ft 474kts
09-Jan-15 00:30 35.852665 139.581865 94 32748ft 474kts
09-Jan-15 00:31 35.836604 139.743539 94 32748ft 474kts
09-Jan-15 00:32 35.820453 139.904588 94 32748ft 474kts
09-Jan-15 00:33 35.804100 140.065452 94 32748ft 474kts
09-Jan-15 00:34 35.787500 140.226560 94 32748ft 474kts
09-Jan-15 00:35 35.770695 140.387508 94 32748ft 474kts
09-Jan-15 00:36 35.753630 140.548815 94 32748ft 474kts
09-Jan-15 00:37 35.736250 140.709380 95 32748ft 474kts
09-Jan-15 00:38 35.700010 140.863820 115 32754ft 481kts
09-Jan-15 00:39 35.640588 141.011057 114 32749ft 481kts
09-Jan-15 00:40 35.580799 141.157516 114 32749ft 481kts
09-Jan-15 00:41 35.520543 141.304461 114 32749ft 481kts
09-Jan-15 00:42 35.460208 141.450948 114 32749ft 481kts
09-Jan-15 00:43 35.399658 141.596812 114 32750ft 481kts
09-Jan-15 00:44 35.339055 141.742693 114 32745ft 481kts
09-Jan-15 00:45 35.278273 141.888328 114 32745ft 481kts
09-Jan-15 00:46 35.217321 142.033733 114 32745ft 481kts
09-Jan-15 00:47 35.156096 142.179154 114 32746ft 481kts
09-Jan-15 00:48 35.095035 142.323560 114 32746ft 481kts
09-Jan-15 00:50 34.971412 142.613529 115 32747ft 481kts
09-Jan-15 00:51 34.909591 142.757924 115 32747ft 481kts
09-Jan-15 00:52 34.855438 142.883848 115 32747ft 481kts
09-Jan-15 00:53 34.793363 143.027621 115 32748ft 481kts
09-Jan-15 00:54 34.730782 143.171952 115 32748ft 481kts
09-Jan-15 00:55 34.668268 143.315521 115 32748ft 481kts
09-Jan-15 00:56 34.605708 143.458594 115 32748ft 481kts
09-Jan-15 00:57 34.570632 143.610164 96 32762ft 475kts
09-Jan-15 00:58 34.553693 143.769084 94 32749ft 474kts
09-Jan-15 00:59 34.536834 143.927570 94 32749ft 474kts
09-Jan-15 01:00 34.519796 144.085743 94 32749ft 474kts
09-Jan-15 01:01 34.502503 144.244326 94 32749ft 474kts
09-Jan-15 01:02 34.485012 144.402784 94 32749ft 474kts
09-Jan-15 01:03 34.467404 144.560391 94 32749ft 474kts
09-Jan-15 01:04 34.449323 144.718850 95 32750ft 474kts
09-Jan-15 01:05 34.431272 144.876652 95 32750ft 474kts
09-Jan-15 01:06 34.412938 145.035070 95 32750ft 474kts
09-Jan-15 01:07 34.394452 145.192984 95 32750ft 474kts
09-Jan-15 01:08 34.375759 145.350859 95 32750ft 474kts
09-Jan-15 01:09 34.356889 145.508464 95 32745ft 474kts
09-Jan-15 01:10 34.337596 145.666475 95 32745ft 474kts
09-Jan-15 01:11 34.318368 145.823539 95 32745ft 474kts
09-Jan-15 01:12 34.298813 145.981557 95 32745ft 474kts
09-Jan-15 01:13 34.288633 146.139822 91 32745ft 472kts
09-Jan-15 01:14 34.279195 146.298793 91 32745ft 472kts
09-Jan-15 01:15 34.269592 146.457104 91 32745ft 472kts
09-Jan-15 01:16 34.259620 146.615041 91 32745ft 473kts
09-Jan-15 01:17 34.249653 146.773038 91 32746ft 473kts
09-Jan-15 01:18 34.239405 146.931786 91 32745ft 472kts
09-Jan-15 01:19 34.228996 147.089855 91 32745ft 472kts
09-Jan-15 01:20 34.218378 147.247966 91 32745ft 472kts
09-Jan-15 01:21 34.207518 147.406599 91 32745ft 472kts
09-Jan-15 01:22 34.196494 147.564624 92 32743ft 473kts
09-Jan-15 01:23 34.185117 147.722451 92 32746ft 473kts
09-Jan-15 01:24 34.173676 147.880557 92 32746ft 473kts
09-Jan-15 01:25 34.163980 148.012390 92 32746ft 473kts
09-Jan-15 01:26 34.150168 148.196891 92 32746ft 473kts
09-Jan-15 01:27 34.138134 148.354672 92 32746ft 473kts
09-Jan-15 01:28 34.125883 148.512607 92 32745ft 473kts
09-Jan-15 01:29 34.113308 148.670000 93 32746ft 473kts
09-Jan-15 01:30 34.102722 148.802193 93 32746ft 473kts
09-Jan-15 01:31 34.089942 148.959466 93 32746ft 473kts
09-Jan-15 01:32 34.076902 149.117399 93 32746ft 473kts
09-Jan-15 01:33 34.063675 149.275115 93 32746ft 473kts
09-Jan-15 01:34 34.050217 149.433116 93 32746ft 473kts
09-Jan-15 01:35 34.036533 149.590297 94 32746ft 473kts
09-Jan-15 01:36 34.022598 149.748229 93 32747ft 473kts
09-Jan-15 01:37 34.008580 149.905581 93 32747ft 473kts
09-Jan-15 01:38 34.009106 150.061825 78 32752ft 468kts
09-Jan-15 01:39 34.030672 150.216236 77 32746ft 467kts
09-Jan-15 01:40 34.052237 150.370345 77 32746ft 467kts
09-Jan-15 01:41 34.073730 150.525411 77 32746ft 467kts
09-Jan-15 01:42 34.094801 150.680113 78 32746ft 468kts
09-Jan-15 01:43 34.115858 150.834987 78 32746ft 468kts
09-Jan-15 01:44 34.136691 150.989713 78 32746ft 468kts
09-Jan-15 01:45 34.157340 151.144602 78 32746ft 468kts
09-Jan-15 01:46 34.177793 151.299548 78 32745ft 468kts
09-Jan-15 01:47 34.198039 151.454480 78 32745ft 468kts
09-Jan-15 01:48 34.217943 151.609801 79 32746ft 468kts
09-Jan-15 01:49 34.237876 151.765306 78 32746ft 468kts
09-Jan-15 01:50 34.257508 151.920234 78 32745ft 468kts
09-Jan-15 01:51 34.277042 152.076014 78 32745ft 468kts
09-Jan-15 01:52 34.293972 152.212374 78 32745ft 468kts
09-Jan-15 01:53 34.313071 152.367761 78 32745ft 468kts
09-Jan-15 01:54 34.331993 152.523369 78 32744ft 468kts
09-Jan-15 01:55 34.350537 152.678908 79 32745ft 468kts
09-Jan-15 01:56 34.369093 152.834895 79 32745ft 468kts
09-Jan-15 01:57 34.387447 152.990912 79 32745ft 468kts
09-Jan-15 01:58 34.405611 153.147070 79 32744ft 468kts
09-Jan-15 01:59 34.423510 153.302707 79 32744ft 468kts
09-Jan-15 02:00 34.441293 153.459136 79 32744ft 468kts
09-Jan-15 02:01 34.458614 153.614980 80 32744ft 468kts
09-Jan-15 02:02 34.475971 153.771042 80 32744ft 468kts
09-Jan-15 02:03 34.493153 153.927625 80 32744ft 468kts
09-Jan-15 02:04 34.510125 154.084181 80 32744ft 468kts
09-Jan-15 02:05 34.526860 154.240447 80 32744ft 468kts
09-Jan-15 02:06 34.543426 154.397068 80 32743ft 468kts
09-Jan-15 02:07 34.559764 154.553478 80 32743ft 468kts
09-Jan-15 02:08 34.575742 154.709973 80 32744ft 468kts
09-Jan-15 02:09 34.591718 154.866876 80 32744ft 468kts
09-Jan-15 02:10 34.607468 155.023579 80 32743ft 468kts
09-Jan-15 02:11 34.622988 155.180041 80 32743ft 468kts
09-Jan-15 02:12 34.638366 155.337163 80 32742ft 468kts
09-Jan-15 02:13 34.653492 155.493828 80 32748ft 468kts
09-Jan-15 02:14 34.668288 155.650874 81 32749ft 468kts
09-Jan-15 02:15 34.683044 155.808017 81 32748ft 468kts
09-Jan-15 02:16 34.697577 155.964942 81 32748ft 468kts
09-Jan-15 02:17 34.711938 156.122246 81 32748ft 468kts
09-Jan-15 02:18 34.726072 156.279321 81 32748ft 468kts
09-Jan-15 02:19 34.740044 156.436907 81 32747ft 468kts
09-Jan-15 02:20 34.753641 156.594175 82 32748ft 468kts
09-Jan-15 02:21 34.767162 156.751634 81 32748ft 468kts
09-Jan-15 02:22 34.780504 156.909110 81 32748ft 468kts
09-Jan-15 02:23 34.793600 157.066131 81 32747ft 468kts
09-Jan-15 02:24 34.806557 157.223964 81 32747ft 468kts
09-Jan-15 02:25 34.819275 157.381409 81 32747ft 468kts
09-Jan-15 02:26 34.831808 157.539125 81 32747ft 468kts
09-Jan-15 02:27 34.843981 157.696998 82 32748ft 468kts
09-Jan-15 02:28 34.856093 157.854643 82 32747ft 468kts
09-Jan-15 02:29 34.868017 158.012528 82 32747ft 468kts
09-Jan-15 02:30 34.879718 158.170200 82 32747ft 468kts
09-Jan-15 02:31 34.891223 158.328029 82 32747ft 468kts
09-Jan-15 02:32 34.902533 158.486023 82 32746ft 468kts
09-Jan-15 02:33 34.913482 158.644137 82 32747ft 468kts
09-Jan-15 02:34 34.924379 158.802221 82 32747ft 468kts
09-Jan-15 02:35 34.935065 158.960180 82 32747ft 468kts
09-Jan-15 02:36 34.945549 159.118234 82 32747ft 468kts
09-Jan-15 02:37 34.954159 159.250441 82 32746ft 468kts
09-Jan-15 02:38 34.965912 159.434620 82 32746ft 468kts
09-Jan-15 02:39 34.975666 159.593172 83 32747ft 468kts
09-Jan-15 02:40 34.983692 159.724749 83 32747ft 468kts
09-Jan-15 02:41 34.993202 159.883289 83 32747ft 468kts
09-Jan-15 02:42 35.005902 160.040972 75 32756ft 466kts
09-Jan-15 02:43 35.028029 160.196615 77 32746ft 466kts
09-Jan-15 02:44 35.049969 160.352608 77 32746ft 466kts
09-Jan-15 02:45 35.071731 160.508836 77 32745ft 466kts
09-Jan-15 02:46 35.093067 160.664742 78 32746ft 467kts
09-Jan-15 02:47 35.114405 160.820965 78 32746ft 466kts
09-Jan-15 02:48 35.135568 160.977462 78 32746ft 466kts
09-Jan-15 02:49 35.156491 161.133747 78 32746ft 466kts
09-Jan-15 02:50 35.177209 161.290074 78 32745ft 466kts
09-Jan-15 02:51 35.197687 161.446189 78 32745ft 466kts
09-Jan-15 02:52 35.215565 161.584584 79 32745ft 467kts
09-Jan-15 02:53 35.235632 161.741129 78 32746ft 467kts
09-Jan-15 02:54 35.255651 161.898413 78 32745ft 467kts
09-Jan-15 02:55 35.275352 162.054866 78 32745ft 467kts
09-Jan-15 02:56 35.294926 162.211994 78 32745ft 466kts
09-Jan-15 02:57 35.314241 162.368745 78 32744ft 466kts
09-Jan-15 02:58 35.333429 162.526183 78 32744ft 466kts
09-Jan-15 02:59 35.352178 162.683157 79 32745ft 467kts
09-Jan-15 03:00 35.370910 162.840338 79 32745ft 467kts
09-Jan-15 03:01 35.389443 162.997635 79 32744ft 467kts
09-Jan-15 03:02 35.407827 163.155482 79 32744ft 467kts
09-Jan-15 03:03 35.425936 163.312790 79 32744ft 467kts
09-Jan-15 03:04 35.443859 163.470332 79 32744ft 467kts
09-Jan-15 03:05 35.461401 163.627922 79 32744ft 467kts
09-Jan-15 03:06 35.478941 163.785782 79 32744ft 467kts
09-Jan-15 03:07 35.496235 163.943400 79 32744ft 467kts
09-Jan-15 03:08 35.513310 164.100955 79 32744ft 467kts
09-Jan-15 03:09 35.530254 164.259273 79 32743ft 467kts
09-Jan-15 03:10 35.546951 164.417269 79 32743ft 467kts
09-Jan-15 03:11 35.563350 164.574928 80 32743ft 467kts
09-Jan-15 03:12 35.579554 164.733419 80 32744ft 467kts
09-Jan-15 03:13 35.595634 164.891631 80 32744ft 467kts
09-Jan-15 03:14 35.611530 165.050149 80 32743ft 467kts
09-Jan-15 03:15 35.627148 165.207994 80 32743ft 467kts
09-Jan-15 03:16 35.642644 165.366783 80 32747ft 467kts
09-Jan-15 03:17 35.657888 165.525175 80 32747ft 467kts
09-Jan-15 03:18 35.672739 165.683466 81 32748ft 467kts
09-Jan-15 03:19 35.687558 165.841860 81 32748ft 467kts
09-Jan-15 03:20 35.702222 166.000893 81 32748ft 467kts
09-Jan-15 03:21 35.716588 166.159003 81 32748ft 467kts
09-Jan-15 03:22 35.730811 166.317883 81 32747ft 467kts
09-Jan-15 03:23 35.744819 166.476747 81 32747ft 467kts
09-Jan-15 03:24 35.758441 166.635564 81 32748ft 467kts
09-Jan-15 03:25 35.772027 166.794515 81 32748ft 467kts
09-Jan-15 03:26 35.785411 166.953581 81 32748ft 467kts
09-Jan-15 03:27 35.798542 167.112174 81 32747ft 467kts
09-Jan-15 03:28 35.811494 167.271174 81 32747ft 467kts
09-Jan-15 03:29 35.824251 167.430413 81 32747ft 467kts
09-Jan-15 03:30 35.836631 167.589455 82 32748ft 467kts
09-Jan-15 03:31 35.848907 167.748291 82 32747ft 467kts
09-Jan-15 03:32 35.861050 167.907882 82 32747ft 467kts
09-Jan-15 03:33 35.872974 168.067422 82 32747ft 467kts
09-Jan-15 03:34 35.884657 168.226590 82 32747ft 467kts
09-Jan-15 03:35 35.896178 168.386495 82 32746ft 467kts
09-Jan-15 03:36 35.907450 168.545906 82 32746ft 467kts
09-Jan-15 03:37 35.918315 168.704959 82 32747ft 467kts
09-Jan-15 03:38 35.929208 168.865080 82 32747ft 467kts
09-Jan-15 03:39 35.939781 169.023633 82 32747ft 467kts
09-Jan-15 03:40 35.950228 169.183487 82 32746ft 467kts
09-Jan-15 03:41 35.960436 169.342958 82 32746ft 467kts
09-Jan-15 03:42 35.970456 169.502856 82 32746ft 467kts
09-Jan-15 03:43 35.980106 169.662957 83 32747ft 467kts
09-Jan-15 03:44 35.989691 169.822752 83 32747ft 467kts
09-Jan-15 03:45 35.999055 169.982435 83 32746ft 467kts
09-Jan-15 03:46 36.020120 170.140179 77 32746ft 465kts
09-Jan-15 03:47 36.038665 170.271012 77 32746ft 465kts
09-Jan-15 03:48 36.060782 170.428422 77 32745ft 465kts
09-Jan-15 03:49 36.082624 170.586470 78 32746ft 465kts
09-Jan-15 03:50 36.104289 170.743983 78 32746ft 465kts
09-Jan-15 03:51 36.125756 170.901433 78 32746ft 465kts
09-Jan-15 03:52 36.144562 171.040688 78 32746ft 465kts
09-Jan-15 03:53 36.165709 171.198813 78 32745ft 465kts
09-Jan-15 03:54 36.186652 171.357051 78 32745ft 465kts
09-Jan-15 03:55 36.207327 171.514917 78 32890ft 465kts
09-Jan-15 03:56 36.227627 171.672915 78 33003ft 465kts
09-Jan-15 03:57 36.247887 171.830938 78 33003ft 465kts
09-Jan-15 03:58 36.267877 171.988557 78 33002ft 465kts
09-Jan-15 03:59 36.287694 172.146523 78 33002ft 465kts
09-Jan-15 04:00 36.307257 172.304201 78 33002ft 465kts
09-Jan-15 04:01 36.326667 172.462398 78 33001ft 465kts
09-Jan-15 04:02 36.345551 172.619563 79 33002ft 465kts
09-Jan-15 04:03 36.364202 172.774955 79 33002ft 465kts
09-Jan-15 04:04 36.381944 172.924502 79 33002ft 465kts
09-Jan-15 04:05 36.399778 173.076512 79 33002ft 465kts
09-Jan-15 04:06 36.418193 173.235295 79 33001ft 465kts
09-Jan-15 04:07 36.436412 173.394281 79 33001ft 465kts
09-Jan-15 04:08 36.454349 173.552709 79 32997ft 465kts
09-Jan-15 04:09 36.471927 173.711416 79 33002ft 465kts
09-Jan-15 04:10 36.489280 173.868488 79 33001ft 465kts
09-Jan-15 04:11 36.506593 174.027159 79 33001ft 465kts
09-Jan-15 04:12 36.523367 174.182830 79 33001ft 465kts
09-Jan-15 04:13 36.540244 174.341462 79 33000ft 465kts
09-Jan-15 04:14 36.556983 174.500848 79 33000ft 465kts
09-Jan-15 04:15 36.573322 174.660155 80 33001ft 465kts
09-Jan-15 04:16 36.589611 174.819422 80 33001ft 465kts
09-Jan-15 04:17 36.605704 174.978917 80 33001ft 465kts
09-Jan-15 04:18 36.621572 175.138364 80 33000ft 465kts
09-Jan-15 04:19 36.637235 175.297947 80 33000ft 465kts
09-Jan-15 04:20 36.652673 175.457464 80 33005ft 465kts
09-Jan-15 04:21 36.667674 175.616671 81 33006ft 465kts
09-Jan-15 04:22 36.682726 175.776589 81 33006ft 465kts
09-Jan-15 04:23 36.697467 175.935673 81 33005ft 465kts
09-Jan-15 04:24 36.712047 176.095360 81 33005ft 465kts
09-Jan-15 04:25 36.726470 176.255756 81 33005ft 465kts
09-Jan-15 04:26 36.740574 176.415023 81 33004ft 465kts
09-Jan-15 04:27 36.754435 176.575046 82 33006ft 465kts
09-Jan-15 04:28 36.767978 176.733803 81 33005ft 465kts
09-Jan-15 04:29 36.781383 176.892505 81 33005ft 465kts
09-Jan-15 04:30 36.794651 177.052167 81 33005ft 465kts
09-Jan-15 04:31 36.807753 177.212463 81 33004ft 465kts
09-Jan-15 04:32 36.820576 177.372012 81 33004ft 465kts
09-Jan-15 04:33 36.833130 177.530892 81 33004ft 465kts
09-Jan-15 04:34 36.845334 177.690290 82 33005ft 465kts
09-Jan-15 04:35 36.857565 177.850619 82 33005ft 465kts
09-Jan-15 04:36 36.869606 178.011327 82 33004ft 465kts
09-Jan-15 04:37 36.881424 178.172007 82 33004ft 465kts
09-Jan-15 04:38 36.893017 178.332613 82 33004ft 465kts
09-Jan-15 04:39 36.904417 178.493593 82 33003ft 465kts
09-Jan-15 04:40 36.915397 178.654189 82 33005ft 465kts
09-Jan-15 04:41 36.926350 178.815077 82 33004ft 465kts
09-Jan-15 04:42 36.937096 178.976166 82 33004ft 465kts
09-Jan-15 04:43 36.947619 179.137210 82 33004ft 465kts
09-Jan-15 04:44 36.957904 179.297979 82 33003ft 465kts
09-Jan-15 04:45 36.967980 179.458901 82 33003ft 465kts
09-Jan-15 04:46 36.977660 179.619912 83 33004ft 465kts
09-Jan-15 04:47 36.987309 179.780918 83 33004ft 465kts
09-Jan-15 04:48 36.996710 179.941574 83 33004ft 465kts
09-Jan-15 04:49 37.004203 -179.897209 85 33005ft 466kts
09-Jan-15 04:50 37.010765 -179.735709 85 33005ft 466kts
09-Jan-15 04:51 37.017033 -179.576311 85 33005ft 466kts
09-Jan-15 04:52 37.021414 -179.461536 85 33004ft 466kts
09-Jan-15 04:53 37.028392 -179.272355 85 33004ft 466kts
09-Jan-15 04:54 37.033190 -179.137297 85 33004ft 466kts
09-Jan-15 04:55 37.039426 -178.948912 85 33005ft 466kts
09-Jan-15 04:56 37.043878 -178.813895 85 33005ft 466kts
09-Jan-15 04:57 37.048993 -178.651766 85 33004ft 466kts
09-Jan-15 04:58 37.053859 -178.490544 85 33004ft 466kts
09-Jan-15 04:59 37.058488 -178.330011 85 33004ft 466kts
09-Jan-15 05:00 37.062941 -178.167933 85 33004ft 466kts
09-Jan-15 05:01 37.067161 -178.006303 85 33003ft 466kts
09-Jan-15 05:02 37.070985 -177.844829 86 33005ft 466kts
09-Jan-15 05:03 37.074762 -177.683363 86 33004ft 466kts
09-Jan-15 05:04 37.078335 -177.521204 86 33004ft 466kts
09-Jan-15 05:05 37.081685 -177.359161 86 33004ft 466kts
09-Jan-15 05:06 37.084808 -177.197435 86 33004ft 466kts
09-Jan-15 05:07 37.087713 -177.035627 86 33003ft 466kts
09-Jan-15 05:08 37.090405 -176.873380 86 33003ft 466kts
09-Jan-15 05:09 37.092872 -176.711322 86 33003ft 466kts
09-Jan-15 05:10 37.095116 -176.549522 86 33002ft 466kts
09-Jan-15 05:11 37.096952 -176.387480 86 33004ft 466kts
09-Jan-15 05:12 37.098779 -176.225118 86 33003ft 466kts
09-Jan-15 05:13 37.100365 -176.062981 86 33003ft 466kts
09-Jan-15 05:14 37.101730 -175.900802 86 33003ft 466kts
09-Jan-15 05:15 37.102874 -175.738808 86 33003ft 466kts
09-Jan-15 05:16 37.103799 -175.576331 86 33002ft 466kts
09-Jan-15 05:17 37.104337 -175.414644 87 33004ft 466kts
09-Jan-15 05:18 37.104809 -175.252474 87 33003ft 466kts
09-Jan-15 05:19 37.105070 -175.090250 87 33003ft 466kts
09-Jan-15 05:20 37.105111 -174.928184 87 33003ft 466kts
09-Jan-15 05:21 37.104932 -174.766768 87 33003ft 466kts
09-Jan-15 05:22 37.104525 -174.602190 87 33003ft 477kts
09-Jan-15 05:23 37.103862 -174.437242 88 33003ft 478kts
09-Jan-15 05:24 37.102843 -174.271104 88 33004ft 477kts
09-Jan-15 05:25 37.101741 -174.105280 88 33003ft 477kts
09-Jan-15 05:26 37.100405 -173.939026 88 33003ft 477kts
09-Jan-15 05:27 37.098807 -173.769720 88 33004ft 494kts
09-Jan-15 05:28 37.096941 -173.598557 88 33000ft 485kts
09-Jan-15 05:29 37.094818 -173.430690 89 33004ft 483kts
09-Jan-15 05:30 37.092394 -173.262200 88 33004ft 483kts
09-Jan-15 05:31 37.089850 -173.094015 88 33003ft 483kts
09-Jan-15 05:32 37.087068 -172.925828 88 33003ft 483kts
09-Jan-15 05:33 37.084071 -172.758844 88 33003ft 483kts
09-Jan-15 05:34 37.080819 -172.590850 88 33002ft 483kts
09-Jan-15 05:35 37.077219 -172.422910 89 33004ft 484kts
09-Jan-15 05:36 37.073417 -172.254332 89 33004ft 483kts
09-Jan-15 05:37 37.069448 -172.086157 89 33003ft 483kts
09-Jan-15 05:38 37.065248 -171.918232 89 33003ft 483kts
09-Jan-15 05:39 37.060801 -171.749964 89 33003ft 483kts
09-Jan-15 05:40 37.056123 -171.581948 89 33002ft 483kts
09-Jan-15 05:41 37.051032 -171.413596 90 33004ft 484kts
09-Jan-15 05:42 37.045864 -171.245391 90 33004ft 483kts
09-Jan-15 05:43 37.040477 -171.077493 90 33003ft 483kts
09-Jan-15 05:44 37.034847 -170.909458 90 33003ft 483kts
09-Jan-15 05:45 37.028968 -170.741108 90 33003ft 483kts
09-Jan-15 05:46 37.022855 -170.572883 90 33003ft 483kts
09-Jan-15 05:47 37.016317 -170.404924 90 33004ft 484kts
09-Jan-15 05:48 37.009779 -170.237404 90 33004ft 484kts
09-Jan-15 05:49 37.002955 -170.069264 90 33004ft 484kts
09-Jan-15 05:50 37.013858 -169.903589 77 33005ft 480kts
09-Jan-15 05:51 37.037385 -169.738961 77 33003ft 480kts
09-Jan-15 05:52 37.057615 -169.595602 77 33002ft 480kts
09-Jan-15 05:53 37.080453 -169.431758 78 33004ft 480kts
09-Jan-15 05:54 37.103160 -169.266681 78 33004ft 480kts
09-Jan-15 05:55 37.125708 -169.101874 78 33003ft 480kts
09-Jan-15 05:56 37.147986 -168.937283 78 33003ft 480kts
09-Jan-15 05:57 37.170047 -168.772513 78 33002ft 480kts
09-Jan-15 05:58 37.191947 -168.607136 78 33002ft 480kts
09-Jan-15 05:59 37.213549 -168.442104 79 33003ft 480kts
09-Jan-15 06:00 37.234745 -168.277142 78 33003ft 480kts
09-Jan-15 06:01 37.252398 -168.139399 78 33003ft 480kts
09-Jan-15 06:02 37.276736 -167.947317 78 33002ft 480kts
09-Jan-15 06:03 37.297480 -167.781532 78 33002ft 480kts
09-Jan-15 06:04 37.314599 -167.643227 78 33001ft 480kts
09-Jan-15 06:05 37.334913 -167.477324 78 33001ft 480kts
09-Jan-15 06:06 37.354722 -167.312129 79 33002ft 480kts
09-Jan-15 06:07 37.374602 -167.145798 79 33002ft 480kts
09-Jan-15 06:08 37.394176 -166.980007 79 33002ft 480kts
09-Jan-15 06:09 37.413571 -166.813674 79 33001ft 480kts
09-Jan-15 06:10 37.432701 -166.647534 79 33001ft 480kts
09-Jan-15 06:11 37.451558 -166.481666 79 33000ft 480kts
09-Jan-15 06:12 37.470089 -166.314984 80 33002ft 480kts
09-Jan-15 06:13 37.488509 -166.148697 80 33001ft 480kts
09-Jan-15 06:14 37.506698 -165.982312 80 33001ft 480kts
09-Jan-15 06:15 37.524663 -165.815751 80 33001ft 480kts
09-Jan-15 06:16 37.542421 -165.648864 80 33000ft 480kts
09-Jan-15 06:17 37.559889 -165.482419 80 33000ft 480kts
09-Jan-15 06:18 37.577019 -165.315211 80 33001ft 480kts
09-Jan-15 06:19 37.594070 -165.148105 80 33001ft 480kts
09-Jan-15 06:20 37.610835 -164.981427 80 33001ft 480kts
09-Jan-15 06:21 37.627421 -164.814106 80 33000ft 480kts
09-Jan-15 06:22 37.643721 -164.647245 80 33004ft 480kts
09-Jan-15 06:23 37.659842 -164.479703 80 33004ft 480kts
09-Jan-15 06:24 37.675514 -164.312452 81 33006ft 480kts
09-Jan-15 06:25 37.691103 -164.145398 81 33005ft 480kts
09-Jan-15 06:26 37.706508 -163.977704 81 33005ft 480kts
09-Jan-15 06:27 37.721659 -163.810131 81 33004ft 480kts
09-Jan-15 06:28 37.736556 -163.642672 81 33004ft 480kts
09-Jan-15 06:29 37.751264 -163.474598 81 33004ft 480kts
09-Jan-15 06:30 37.765501 -163.307096 81 33005ft 480kts
09-Jan-15 06:31 37.779718 -163.139051 81 33005ft 480kts
09-Jan-15 06:32 37.793678 -162.971170 81 33004ft 480kts
09-Jan-15 06:33 37.807409 -162.803117 81 33004ft 480kts
09-Jan-15 06:34 37.820861 -162.635504 81 33004ft 480kts
09-Jan-15 06:35 37.834131 -162.467126 81 33003ft 480kts
09-Jan-15 06:36 37.846951 -162.299115 82 33005ft 480kts
09-Jan-15 06:37 37.859721 -162.130875 82 33004ft 480kts
09-Jan-15 06:38 37.872276 -161.962267 82 33004ft 480kts
09-Jan-15 06:39 37.884538 -161.794318 82 33004ft 480kts
09-Jan-15 06:40 37.896629 -161.625365 82 33003ft 480kts
09-Jan-15 06:41 37.908433 -161.457014 83 33002ft 480kts
09-Jan-15 06:42 37.919836 -161.288359 83 33004ft 481kts
09-Jan-15 06:43 37.931165 -161.119816 83 33004ft 481kts
09-Jan-15 06:44 37.942237 -160.951489 83 33004ft 481kts
09-Jan-15 06:45 37.953105 -160.782536 83 33003ft 481kts
09-Jan-15 06:46 37.963701 -160.614013 83 33003ft 481kts
09-Jan-15 06:47 37.974081 -160.444721 83 33002ft 481kts
09-Jan-15 06:48 37.984036 -160.276143 83 33004ft 481kts
09-Jan-15 06:49 37.993928 -160.107177 83 33004ft 481kts
09-Jan-15 06:50 38.008997 -159.939483 77 33005ft 479kts
09-Jan-15 06:51 38.032659 -159.772976 77 33003ft 479kts
09-Jan-15 06:52 38.053465 -159.626268 77 33002ft 479kts
09-Jan-15 06:53 38.076829 -159.459874 78 32999ft 479kts
09-Jan-15 06:54 38.099750 -159.293556 78 33004ft 479kts
09-Jan-15 06:55 38.122667 -159.126787 78 33003ft 479kts
09-Jan-15 06:56 38.145356 -158.959853 78 33003ft 479kts
09-Jan-15 06:57 38.167797 -158.792898 78 33002ft 479kts
09-Jan-15 06:58 38.189971 -158.626078 78 33002ft 479kts
09-Jan-15 06:59 38.211888 -158.459317 78 32998ft 479kts
09-Jan-15 07:00 38.233333 -158.292877 78 33003ft 479kts
09-Jan-15 07:01 38.254945 -158.124608 78 33003ft 479kts
09-Jan-15 07:02 38.276167 -157.957424 78 33002ft 479kts
09-Jan-15 07:03 38.297180 -157.789920 78 33002ft 479kts
09-Jan-15 07:04 38.317922 -157.622586 78 33001ft 479kts
09-Jan-15 07:05 38.338485 -157.454653 79 32999ft 479kts
09-Jan-15 07:06 38.358587 -157.287001 79 33002ft 479kts
09-Jan-15 07:07 38.378629 -157.119250 79 33002ft 479kts
09-Jan-15 07:08 38.398447 -156.951282 79 33001ft 479kts
09-Jan-15 07:09 38.418054 -156.782978 79 33001ft 479kts
09-Jan-15 07:10 38.434180 -156.642903 79 33001ft 479kts
09-Jan-15 07:11 38.453341 -156.474467 79 33000ft 479kts
09-Jan-15 07:12 38.475165 -156.278259 80 33002ft 479kts
09-Jan-15 07:13 38.490663 -156.138202 80 33001ft 479kts
09-Jan-15 07:14 38.512148 -155.941403 80 33001ft 479kts
09-Jan-15 07:15 38.527294 -155.800744 80 33001ft 479kts
09-Jan-15 07:16 38.545216 -155.632181 80 33000ft 479kts
09-Jan-15 07:17 38.562906 -155.463428 80 33000ft 479kts
09-Jan-15 07:18 38.580150 -155.294838 80 33001ft 479kts
09-Jan-15 07:19 38.597371 -155.125765 80 33001ft 479kts
09-Jan-15 07:20 38.614375 -154.956354 80 33001ft 479kts
09-Jan-15 07:21 38.631081 -154.787409 80 33000ft 479kts
09-Jan-15 07:22 38.647589 -154.617932 80 33004ft 479kts
09-Jan-15 07:23 38.663805 -154.448660 81 33006ft 480kts
09-Jan-15 07:24 38.679625 -154.279398 81 33005ft 480kts
09-Jan-15 07:25 38.695394 -154.109745 81 33005ft 480kts
09-Jan-15 07:26 38.710882 -153.940402 81 33005ft 480kts
09-Jan-15 07:27 38.726140 -153.770832 81 33004ft 480kts
09-Jan-15 07:28 38.741179 -153.600889 81 33004ft 480kts
09-Jan-15 07:29 38.755800 -153.431386 82 33005ft 480kts
09-Jan-15 07:30 38.770288 -153.261356 81 33005ft 480kts
09-Jan-15 07:31 38.784570 -153.091431 81 33005ft 480kts
09-Jan-15 07:32 38.798594 -152.921587 81 33004ft 480kts
09-Jan-15 07:33 38.812409 -152.751218 81 33004ft 480kts
09-Jan-15 07:34 38.825957 -152.581019 81 33003ft 480kts
09-Jan-15 07:35 38.839037 -152.410883 82 33005ft 480kts
09-Jan-15 07:36 38.852097 -152.240888 82 33005ft 480kts
09-Jan-15 07:37 38.864914 -152.070370 82 33004ft 480kts
09-Jan-15 07:38 38.877423 -151.900613 82 33004ft 480kts
09-Jan-15 07:39 38.889722 -151.730312 82 33003ft 480kts
09-Jan-15 07:40 38.901791 -151.559686 82 33003ft 480kts
09-Jan-15 07:41 38.913418 -151.389052 82 33005ft 480kts
09-Jan-15 07:42 38.925024 -151.217948 83 33004ft 480kts
09-Jan-15 07:43 38.936310 -151.047720 83 33004ft 480kts
09-Jan-15 07:44 38.947389 -150.876818 83 33003ft 480kts
09-Jan-15 07:45 38.958225 -150.705753 83 33003ft 480kts
09-Jan-15 07:46 38.968793 -150.534935 83 33002ft 480kts
09-Jan-15 07:47 38.978943 -150.363945 83 33004ft 480kts
09-Jan-15 07:48 38.989009 -150.193003 83 33004ft 480kts
09-Jan-15 07:49 38.998858 -150.021542 83 33003ft 480kts
09-Jan-15 07:50 38.991550 -149.849922 91 33003ft 482kts
09-Jan-15 07:51 38.981553 -149.678061 91 33003ft 482kts
09-Jan-15 07:52 38.972608 -149.527908 91 33002ft 482kts
09-Jan-15 07:53 38.961946 -149.355942 92 33004ft 483kts
09-Jan-15 07:54 38.951200 -149.183925 92 33004ft 483kts
09-Jan-15 07:55 38.940203 -149.011933 92 33004ft 483kts
09-Jan-15 07:56 38.928994 -148.840607 92 33003ft 483kts
09-Jan-15 07:57 38.917505 -148.668885 92 33003ft 483kts
09-Jan-15 07:58 38.905743 -148.496926 92 33003ft 483kts
09-Jan-15 07:59 38.893607 -148.325856 93 33005ft 483kts
09-Jan-15 08:00 38.881337 -148.153935 93 33004ft 483kts
09-Jan-15 08:01 38.868862 -147.982717 93 33004ft 483kts
09-Jan-15 08:02 38.856125 -147.811398 93 33004ft 483kts
09-Jan-15 08:03 38.843106 -147.639716 93 33003ft 483kts
09-Jan-15 08:04 38.829878 -147.468642 93 33003ft 483kts
09-Jan-15 08:05 38.816171 -147.297039 93 33005ft 483kts
09-Jan-15 08:06 38.802455 -147.126238 93 33005ft 483kts
09-Jan-15 08:07 38.788418 -146.954632 93 33004ft 483kts
09-Jan-15 08:08 38.774170 -146.783559 93 33004ft 483kts
09-Jan-15 08:09 38.759688 -146.612737 93 33004ft 483kts
09-Jan-15 08:10 38.744862 -146.441570 94 33006ft 483kts
09-Jan-15 08:11 38.729736 -146.270637 94 33005ft 483kts
09-Jan-15 08:12 38.714513 -146.100075 94 33005ft 483kts
09-Jan-15 08:13 38.698978 -145.928894 94 33005ft 483kts
09-Jan-15 08:14 38.683272 -145.758639 94 33004ft 483kts
09-Jan-15 08:15 38.667215 -145.587351 94 33004ft 483kts
09-Jan-15 08:16 38.650829 -145.417360 95 33006ft 483kts
09-Jan-15 08:17 38.637106 -145.275166 94 33006ft 483kts
09-Jan-15 08:18 38.617565 -145.075973 94 33005ft 483kts
09-Jan-15 08:19 38.600573 -144.905595 94 33005ft 483kts
09-Jan-15 08:20 38.583356 -144.735503 94 33005ft 483kts
09-Jan-15 08:21 38.568784 -144.593478 94 33004ft 483kts
09-Jan-15 08:22 38.550930 -144.423381 95 33006ft 484kts
09-Jan-15 08:23 38.532942 -144.252967 95 33006ft 483kts
09-Jan-15 08:24 38.514778 -144.083168 95 33006ft 483kts
09-Jan-15 08:25 38.496365 -143.913419 95 33005ft 483kts
09-Jan-15 08:26 38.477637 -143.743126 95 33005ft 483kts
09-Jan-15 08:27 38.458730 -143.573521 95 33005ft 483kts
09-Jan-15 08:28 38.439325 -143.403679 96 33007ft 484kts
09-Jan-15 08:29 38.419934 -143.234011 96 33006ft 484kts
09-Jan-15 08:30 38.400277 -143.064535 96 33006ft 484kts
09-Jan-15 08:31 38.380364 -142.895050 96 33006ft 484kts
09-Jan-15 08:32 38.360199 -142.725560 96 33003ft 484kts
09-Jan-15 08:33 38.339811 -142.556349 96 33001ft 484kts
09-Jan-15 08:34 38.319025 -142.387555 96 33003ft 484kts
09-Jan-15 08:35 38.298126 -142.218258 96 33002ft 484kts
09-Jan-15 08:36 38.277015 -142.049392 96 33002ft 484kts
09-Jan-15 08:37 38.255620 -141.880300 96 33002ft 484kts
09-Jan-15 08:38 38.233948 -141.711033 96 33002ft 484kts
09-Jan-15 08:39 38.212078 -141.542214 96 33001ft 484kts
09-Jan-15 08:40 38.189887 -141.374258 97 33003ft 484kts
09-Jan-15 08:41 38.167441 -141.204961 97 33003ft 484kts
09-Jan-15 08:42 38.144871 -141.036634 97 33003ft 484kts
09-Jan-15 08:43 38.122019 -140.868100 97 33002ft 484kts
09-Jan-15 08:44 38.098958 -140.699903 97 33002ft 484kts
09-Jan-15 08:45 38.075595 -140.531362 97 33002ft 484kts
09-Jan-15 08:46 38.052002 -140.364267 97 33004ft 484kts
09-Jan-15 08:47 38.028714 -140.199807 97 33004ft 484kts
09-Jan-15 08:48 38.004917 -140.033539 97 33003ft 484kts
09-Jan-15 08:49 38.005901 -139.862386 84 33004ft 491kts
09-Jan-15 08:50 38.012931 -139.688998 84 33003ft 492kts
09-Jan-15 08:51 38.019702 -139.516448 84 33002ft 492kts
09-Jan-15 08:52 38.025223 -139.366085 85 33004ft 492kts
09-Jan-15 08:53 38.031547 -139.192591 85 33004ft 492kts
09-Jan-15 08:54 38.037607 -139.019532 85 33003ft 492kts
09-Jan-15 08:55 38.043369 -138.847803 85 33003ft 492kts
09-Jan-15 08:56 38.048933 -138.674367 85 33002ft 492kts
09-Jan-15 08:57 38.054235 -138.501141 85 33002ft 492kts
09-Jan-15 08:58 38.059105 -138.327853 85 33004ft 492kts
09-Jan-15 08:59 38.063886 -138.155124 85 33003ft 492kts
09-Jan-15 09:00 38.068428 -137.981741 85 33003ft 492kts
09-Jan-15 09:01 38.072711 -137.808560 85 33003ft 492kts
09-Jan-15 09:02 38.076741 -137.635293 85 33002ft 492kts
09-Jan-15 09:03 38.080525 -137.461602 85 33002ft 492kts
09-Jan-15 09:04 38.083871 -137.288098 86 33004ft 492kts
09-Jan-15 09:05 38.087134 -137.114918 86 33003ft 492kts
09-Jan-15 09:06 38.090159 -136.940757 86 33003ft 492kts
09-Jan-15 09:07 38.092915 -136.767359 86 33002ft 492kts
09-Jan-15 09:08 38.095422 -136.593556 86 33002ft 492kts
09-Jan-15 09:09 38.097499 -136.420788 87 33003ft 492kts
09-Jan-15 09:10 38.099475 -136.247256 87 33003ft 492kts
09-Jan-15 09:11 38.101218 -136.073220 87 33003ft 492kts
09-Jan-15 09:12 38.102696 -135.900134 87 33003ft 492kts
09-Jan-15 09:13 38.103925 -135.726265 87 33002ft 492kts
09-Jan-15 09:14 38.104896 -135.552925 87 33002ft 492kts
09-Jan-15 09:15 38.105430 -135.379622 87 33004ft 492kts
09-Jan-15 09:16 38.105896 -135.205878 87 33003ft 492kts
09-Jan-15 09:17 38.106102 -135.032568 87 33003ft 492kts
09-Jan-15 09:18 38.106052 -134.858350 87 33003ft 492kts
09-Jan-15 09:19 38.105748 -134.685082 87 33002ft 492kts
09-Jan-15 09:20 38.105189 -134.511861 87 33002ft 492kts
09-Jan-15 09:21 38.104194 -134.338130 88 33004ft 493kts
09-Jan-15 09:22 38.103124 -134.164310 88 33003ft 493kts
09-Jan-15 09:23 38.101798 -133.990844 88 33003ft 493kts
09-Jan-15 09:24 38.100494 -133.845745 88 33003ft 493kts
09-Jan-15 09:25 38.098705 -133.672675 88 33002ft 493kts
09-Jan-15 09:26 38.096661 -133.499619 88 33002ft 493kts
09-Jan-15 09:27 38.094212 -133.328503 88 33004ft 493kts
09-Jan-15 09:28 38.091659 -133.154998 88 33003ft 493kts
09-Jan-15 09:29 38.088858 -132.982096 88 33003ft 493kts
09-Jan-15 09:30 38.085800 -132.808950 88 33003ft 493kts
09-Jan-15 09:31 38.082471 -132.634949 88 33002ft 493kts
09-Jan-15 09:32 38.078887 -132.461091 88 33002ft 493kts
09-Jan-15 09:33 38.074878 -132.287588 89 33004ft 493kts
09-Jan-15 09:34 38.070786 -132.113906 89 33003ft 493kts
09-Jan-15 09:35 38.066438 -131.940216 89 33003ft 493kts
09-Jan-15 09:36 38.061836 -131.766607 89 33003ft 493kts
09-Jan-15 09:37 38.056979 -131.593014 89 33002ft 493kts
09-Jan-15 09:38 38.051709 -131.419693 90 33004ft 493kts
09-Jan-15 09:39 38.046330 -131.246215 90 33004ft 493kts
09-Jan-15 09:40 38.040715 -131.072922 90 33003ft 493kts
09-Jan-15 09:41 38.034822 -130.898959 90 33003ft 493kts
09-Jan-15 09:42 38.028806 -130.728736 90 33003ft 493kts
09-Jan-15 09:43 38.022404 -130.554800 90 33002ft 493kts
09-Jan-15 09:44 38.015603 -130.381994 90 33004ft 493kts
09-Jan-15 09:45 38.008717 -130.208567 90 33004ft 493kts
09-Jan-15 09:46 38.001559 -130.034971 90 33003ft 493kts
09-Jan-15 09:47 38.022778 -129.865783 75 33004ft 489kts
09-Jan-15 09:48 38.050621 -129.699262 75 33002ft 489kts
09-Jan-15 09:49 38.078669 -129.530157 75 33002ft 489kts
09-Jan-15 09:50 38.106205 -129.361488 76 33004ft 489kts
09-Jan-15 09:51 38.133744 -129.192241 76 33003ft 489kts
09-Jan-15 09:52 38.158729 -129.037305 76 33003ft 489kts
09-Jan-15 09:53 38.185665 -128.868712 76 33002ft 489kts
09-Jan-15 09:54 38.212542 -128.698845 76 33002ft 489kts
09-Jan-15 09:55 38.239070 -128.529515 76 33001ft 489kts
09-Jan-15 09:56 38.265185 -128.360015 77 33003ft 489kts
09-Jan-15 09:57 38.291323 -128.189774 77 33002ft 489kts
09-Jan-15 09:58 38.317103 -128.020183 77 33002ft 489kts
09-Jan-15 09:59 38.342765 -127.849625 77 33001ft 489kts
09-Jan-15 10:00 38.368140 -127.679218 77 33001ft 489kts
09-Jan-15 10:01 38.393043 -127.510231 77 33000ft 489kts
09-Jan-15 10:02 38.417927 -127.338329 77 33002ft 490kts
09-Jan-15 10:03 38.442484 -127.168113 77 33002ft 490kts
09-Jan-15 10:04 38.465126 -126.996633 85 32989ft 491kts
09-Jan-15 10:05 38.415535 -126.835160 99 33015ft 496kts
09-Jan-15 10:06 38.366285 -126.670621 108 33001ft 499kts
09-Jan-15 10:07 38.316086 -126.507115 108 33001ft 499kts
09-Jan-15 10:08 38.265752 -126.344715 109 33003ft 499kts
09-Jan-15 10:09 38.214866 -126.180868 109 33003ft 499kts
09-Jan-15 10:10 38.163633 -126.016874 109 33003ft 499kts
09-Jan-15 10:11 38.112438 -125.853954 109 33002ft 499kts
09-Jan-15 10:12 38.060645 -125.690082 109 33002ft 499kts
09-Jan-15 10:13 38.008749 -125.526835 109 33002ft 499kts
09-Jan-15 10:14 37.962945 -125.361788 106 33004ft 498kts
09-Jan-15 10:15 37.918053 -125.195464 106 33004ft 498kts
09-Jan-15 10:16 37.873166 -125.030156 106 33004ft 498kts
09-Jan-15 10:17 37.827988 -124.864830 106 33004ft 498kts
09-Jan-15 10:18 37.782449 -124.699235 106 33004ft 498kts
09-Jan-15 10:19 37.736601 -124.533565 106 33003ft 498kts
09-Jan-15 10:20 37.690615 -124.369084 107 33005ft 499kts
09-Jan-15 10:21 37.644382 -124.204118 107 33005ft 499kts
09-Jan-15 10:22 37.597901 -124.039270 107 33005ft 499kts
09-Jan-15 10:23 37.551264 -123.874888 107 33005ft 499kts
09-Jan-15 10:24 37.504268 -123.710249 107 33005ft 499kts
09-Jan-15 10:25 37.457150 -123.546189 107 33005ft 499kts
09-Jan-15 10:26 37.417736 -123.410442 107 33006ft 499kts
09-Jan-15 10:27 37.362238 -123.219350 107 33007ft 499kts
09-Jan-15 10:28 37.322454 -123.083232 107 33002ft 499kts
09-Jan-15 10:29 37.274381 -122.919659 107 33002ft 499kts
09-Jan-15 10:30 37.206797 -122.768053 121 33003ft 504kts
09-Jan-15 10:31 37.128427 -122.622306 121 33002ft 504kts
09-Jan-15 10:32 37.050170 -122.477309 121 33002ft 504kts
09-Jan-15 10:33 36.972236 -122.333909 121 33004ft 504kts
09-Jan-15 10:34 36.894109 -122.190388 121 33004ft 504kts
09-Jan-15 10:35 36.816931 -122.049206 121 33004ft 504kts
09-Jan-15 10:36 36.741181 -121.911209 121 33004ft 504kts
09-Jan-15 10:37 36.662294 -121.768092 121 33004ft 504kts
09-Jan-15 10:38 36.583414 -121.625590 121 33004ft 504kts
09-Jan-15 10:39 36.504046 -121.482809 121 33004ft 504kts
09-Jan-15 10:40 36.425189 -121.341912 122 32999ft 504kts
09-Jan-15 10:41 36.347978 -121.203962 125 33197ft 492kts
09-Jan-15 10:42 36.269311 -121.064394 125 33201ft 508kts
09-Jan-15 10:43 36.192499 -120.928441 124 33210ft 508kts
09-Jan-15 10:44 36.114960 -120.791737 124 33210ft 506kts
09-Jan-15 10:45 36.038947 -120.658262 124 33210ft 505kts
09-Jan-15 10:46 35.960753 -120.521499 124 33210ft 504kts
09-Jan-15 10:47 35.882487 -120.385538 125 33210ft 504kts
09-Jan-15 10:48 35.803955 -120.249241 125 33210ft 504kts
09-Jan-15 10:49 35.725340 -120.113360 125 33086ft 504kts
09-Jan-15 10:50 35.644389 -119.975287 130 32988ft 504kts
09-Jan-15 10:51 35.535911 -119.882375 144 33006ft 504kts
09-Jan-15 10:52 35.430129 -119.790981 144 32995ft 504kts
09-Jan-15 10:53 35.319025 -119.695400 144 32995ft 504kts
09-Jan-15 10:54 35.204962 -119.597613 144 30565ft 507kts
09-Jan-15 10:55 35.089284 -119.498788 144 28377ft 512kts
09-Jan-15 10:56 34.981434 -119.407255 145 26359ft 519kts
09-Jan-15 10:57 34.874071 -119.316062 145 24388ft 525kts
09-Jan-15 10:58 34.773975 -119.231423 145 22544ft 521kts
09-Jan-15 10:59 34.673638 -119.146805 145 20684ft 521kts
09-Jan-15 11:00 34.563236 -119.053978 144 18410ft 524kts
09-Jan-15 11:01 34.451148 -118.959959 145 15935ft 458kts
09-Jan-15 11:02 34.350303 -118.877654 154 13858ft 451kts
09-Jan-15 11:03 34.233373 -118.835715 163 12682ft 445kts
09-Jan-15 11:04 34.117610 -118.793278 162 12007ft 440kts
09-Jan-15 11:05 34.033844 -118.705169 113 10273ft 355kts
09-Jan-15 11:06 34.024782 -118.609998 95 9170ft 284kts
09-Jan-15 11:07 34.016230 -118.518443 95 7698ft 277kts
09-Jan-15 11:08 34.012963 -118.431122 81 6969ft 274kts
09-Jan-15 11:09 34.022073 -118.341146 82 7015ft 275kts
09-Jan-15 11:10 34.024032 -118.251771 88 7015ft 275kts
09-Jan-15 11:11 34.025229 -118.160834 88 7007ft 260kts
09-Jan-15 11:12 34.026375 -118.075500 88 7005ft 258kts
09-Jan-15 11:13 34.025137 -117.997216 99 6343ft 209kts
09-Jan-15 11:14 34.000417 -117.975317 230 5072ft 191kts
09-Jan-15 11:15 33.976592 -118.031397 255 5015ft 192kts
09-Jan-15 11:16 33.967498 -118.090387 261 4749ft 192kts
09-Jan-15 11:17 33.960707 -118.153198 262 3849ft 213kts
09-Jan-15 11:18 33.953391 -118.225497 262 2696ft 217kts
09-Jan-15 11:19 33.946253 -118.295914 262 1568ft 212kts
09-Jan-15 11:20 33.940101 -118.356207 262 587ft 143kts
09-Jan-15 11:21 33.936143 -118.394919 263 135ft 31kts
09-Jan-15 11:22 33.936385 -118.399098 290 135ft 0kts
09-Jan-15 11:23 33.937770 -118.401804 310 135ft 29kts
09-Jan-15 11:24 33.938901 -118.407408 276 135ft 17kts
09-Jan-15 11:25 33.939813 -118.408963 260 135ft 0kts

Navigation Log

Ident Type
1. RKSI Airport
2. EGOBA Fix
3. LANAT Fix
4. SAMON Fix
5. CHILY Fix
6. SUWAH Fix
7. KARUI Fix
8. RYUGA Fix
9. CVC Navaid
10. SMOLT Fix
11. JANIS Fix
12. MORAY Fix
13. 3400N 15000E Flightaware
14. 3500N 16000E Flightaware
15. 3600N 17000E Flightaware
16. 3700N 18000E Flightaware
17. 3700N 17000W Flightaware
18. 3800N 16000W Flightaware
19. 3900N 15000W Flightaware
20. 3800N 14000W Flightaware
21. 3800N 13000W Flightaware
22. DACEM Fix
23. PAINT Fix
24. PIRAT Fix
25. AVE Navaid
26. DERBB Fix
27. REYES Fix
28. FIM Navaid
29. SYMON Fix
30. SADDE Fix
31. BAYST Fix
32. SMO Navaid
33. JAVSI Fix
34. KLAX Airport